FMMIFMMT

Guest
Details From FMMI - Ivato
To FMMT - Toamasina
Flight Number -
Tags Generated
Created
Modified
Stats Distance 117 nm / 217 km
Max Altitude 0 ft / 0 m
Waypoints 2
Social Downloads 3
Likes 0
Share VATSIM

Download

Looking for another format? Having issues loading an existing format? Contact us
Advertisement - Login to hide

Notes

Generated

Route

FMMI FMMT

ID Type Via Altitude Latitude Longitude Leg Dist Tot Dist Heading (true) Name
O FMMI APT - 0 ft / 0 m -18.79479˚ 47.46427˚ - 0 nm - -
O FMMT APT - 0 ft / 0 m -18.11942˚ 49.39365˚ 117 nm 117 nm 70° / 69° -

Altitude Profile

Advertisement - Login to hide

FMMI

Details ICAO FMMI (TNR)
Name IVATO
Region Comoros, Mayotte, Réunion and Madagascar
Timezone Indian/Antananarivo (UTC+3.0)
Stats Elevation 4,198 ft / 1,280 m (AMSL)
Location -18.796950° 47.478806°
Runways 1
Magnetic Variation 15.172° W

METAR

FMMI 202100Z 14006KT 110V170 9999 FEW017 14/12 Q1023 NOSIG

Decode

TAF

TAF FMMI 201100Z 2012/2118 14010KT 9999 SCT017 SCT020= TAF FMEE 201100Z 2012/2118 12018KT 9999 SCT040 TEMPO 2012/2015 12023G35KT BECMG 2014/2016 14015KT PROB40 TEMPO 2021/2103 3000 SHRA BKN020CB PROB30 TEMPO 2021/2103 TSRA BECMG 2104/2106 12018G30KT

Decode

Departure Runways

ID Width Length Bearing (true) Bearing (mag) Surface Threshold Offset Overrun Length
11 148 ft / 45 m 10,167 ft / 3,099 m 98.92° 114.09° Asphalt 0 ft / 0 m 90 ft / 27 m
29 148 ft / 45 m 10,167 ft / 3,099 m 278.91° 294.08° Asphalt 0 ft / 0 m 90 ft / 27 m

FMMT

Details ICAO FMMT (TMM)
Name TOAMASINA
Region Comoros, Mayotte, Réunion and Madagascar
Timezone Indian/Antananarivo (UTC+3.0)
Stats Elevation 22 ft / 7 m (AMSL)
Location -18.109517° 49.392536°
Runways 1
Magnetic Variation 14.785° W

METAR

FMMT 202100Z 24010KT 9999 FEW017 SCT033 20/19 Q1017

Decode

TAF

Not found

Destination Runways

ID Width Length Bearing (true) Bearing (mag) Surface Threshold Offset Overrun Length
01 131 ft / 40 m 7,270 ft / 2,216 m 353.90° 8.68° Asphalt 0 ft / 0 m 100 ft / 30 m
19 131 ft / 40 m 7,270 ft / 2,216 m 173.90° 188.68° Asphalt 0 ft / 0 m 197 ft / 60 m

Approach Navaids

Runway Type Ident Frequency Range Bearing (true) Bearing (mag) Slope Elevation
19 Localiser TO 110.30 MHz 18 nm / 33 km 173.77° 188.55° - 22 ft / 7 m (AMSL)
19 Glidescope TO 110.30 MHz 10 nm / 19 km 173.90° 188.68° 3.00° 22 ft / 7 m (AMSL)

Popular Alternatives